Time;durP1;ratioP1;P1;durP2;ratioP2;P2;SDS_P1;SDS_P2;PMS_P1;PMS_P2;Temp;Humidity;BMP_temperature;BMP_pressure;BME280_temperature;BME280_humidity;BME280_pressure;Samples;Min_cycle;Max_cycle;Signal;HPM_P1;HPM_P2
2021/12/26 00:00:06;;;;;;;14.38;8.15;;;;;;;4.57;100.00;92773.25;4990449;28;20350;-79
2021/12/26 00:02:33;;;;;;;14.40;7.20;;;;;;;4.59;100.00;92784.03;4990702;28;20486;-78
2021/12/26 00:05:00;;;;;;;14.07;7.57;;;;;;;4.49;100.00;92774.94;4991009;28;20042;-78
2021/12/26 00:07:27;;;;;;;13.93;7.70;;;;;;;4.51;100.00;92785.75;4990317;28;20050;-78
2021/12/26 00:09:54;;;;;;;20.70;9.43;;;;;;;4.48;100.00;92783.56;4990726;28;20046;-78
2021/12/26 00:12:21;;;;;;;18.92;9.55;;;;;;;4.38;100.00;92762.72;4990642;28;20046;-78
2021/12/26 00:14:47;;;;;;;21.20;11.18;;;;;;;4.43;100.00;92783.31;4990289;28;20497;-78
2021/12/26 00:17:16;;;;;;;24.23;12.30;;;;;;;4.42;100.00;92779.19;4990898;28;20042;-79
2021/12/26 00:19:42;;;;;;;20.95;9.80;;;;;;;4.38;100.00;92775.44;4990402;28;20046;-78
2021/12/26 00:22:09;;;;;;;13.77;6.63;;;;;;;4.32;100.00;92784.59;4990575;28;20101;-79
2021/12/26 00:24:36;;;;;;;15.90;5.80;;;;;;;4.28;100.00;92776.53;4990510;28;20049;-79
2021/12/26 00:27:03;;;;;;;13.57;5.35;;;;;;;4.25;100.00;92776.09;4990027;28;20050;-78
2021/12/26 00:29:30;;;;;;;8.95;4.57;;;;;;;4.19;100.00;92771.75;4990233;28;20042;-78
2021/12/26 00:31:57;;;;;;;7.43;3.90;;;;;;;4.20;100.00;92780.94;4990365;28;20414;-78
2021/12/26 00:34:25;;;;;;;8.88;4.72;;;;;;;4.15;100.00;92773.84;4990180;28;20046;-77
2021/12/26 00:36:52;;;;;;;8.95;4.57;;;;;;;4.07;100.00;92761.28;4990333;28;20406;-78
2021/12/26 00:39:19;;;;;;;11.48;5.05;;;;;;;4.16;100.00;92777.97;4990009;28;20097;-77
2021/12/26 00:41:45;;;;;;;12.50;5.78;;;;;;;4.15;100.00;92776.41;4989686;28;20050;-78
2021/12/26 00:44:12;;;;;;;10.45;5.22;;;;;;;4.12;100.00;92780.09;4990234;28;20069;-78
2021/12/26 00:46:39;;;;;;;9.38;5.22;;;;;;;4.13;100.00;92780.88;4990501;28;20053;-78
2021/12/26 00:49:06;;;;;;;10.60;4.82;;;;;;;4.16;100.00;92782.28;4990218;28;20046;-78
2021/12/26 00:51:34;;;;;;;12.32;4.85;;;;;;;4.11;100.00;92777.72;4990204;28;20142;-78
2021/12/26 00:54:01;;;;;;;9.27;5.82;;;;;;;4.02;100.00;92761.81;4989913;28;20077;-77
2021/12/26 00:56:28;;;;;;;9.90;5.15;;;;;;;4.05;100.00;92779.25;4990164;28;20038;-77
2021/12/26 00:58:55;;;;;;;12.02;5.93;;;;;;;4.09;100.00;92780.47;4989901;28;20096;-77
2021/12/26 01:01:22;;;;;;;9.10;5.80;;;;;;;4.06;100.00;92774.94;4989693;28;20046;-77
2021/12/26 01:03:49;;;;;;;12.30;6.88;;;;;;;4.04;100.00;92776.88;4990147;28;20483;-78
2021/12/26 01:06:16;;;;;;;10.05;6.50;;;;;;;4.04;100.00;92775.13;4990032;28;20046;-77
2021/12/26 01:08:48;;;;;;;15.68;6.57;;;;;;;3.85;100.00;92751.84;4989977;28;20089;-77
2021/12/26 01:11:22;;;;;;;10.50;6.15;;;;;;;3.95;100.00;92759.22;4989647;28;20493;-77
2021/12/26 01:13:51;;;;;;;12.98;7.07;;;;;;;3.95;100.00;92758.41;4990051;28;20057;-77
2021/12/26 01:16:18;;;;;;;11.93;6.47;;;;;;;3.92;100.00;92746.84;4989693;28;20051;-77
2021/12/26 01:18:50;;;;;;;11.07;6.57;;;;;;;3.84;100.00;92750.28;4989751;28;20042;-77
2021/12/26 01:21:18;;;;;;;10.73;6.13;;;;;;;3.83;100.00;92751.25;4989848;28;20081;-77
2021/12/26 01:23:49;;;;;;;10.07;5.65;;;;;;;3.74;100.00;92742.16;4989760;28;20039;-78
2021/12/26 01:26:17;;;;;;;11.27;5.40;;;;;;;3.73;100.00;92743.94;4989596;28;20038;-78
2021/12/26 01:28:44;;;;;;;10.30;5.65;;;;;;;3.67;100.00;92738.78;4992884;28;20049;-78
2021/12/26 01:31:11;;;;;;;12.63;6.97;;;;;;;3.70;100.00;92736.66;4993649;28;20081;-78
2021/12/26 01:33:38;;;;;;;14.30;6.47;;;;;;;3.70;100.00;92733.34;4993723;28;20101;-78
2021/12/26 01:36:05;;;;;;;13.52;6.28;;;;;;;3.56;100.00;92712.88;4993448;28;20054;-78
2021/12/26 01:38:32;;;;;;;11.45;5.97;;;;;;;3.59;100.00;92715.06;4994050;28;20053;-78
2021/12/26 01:41:08;;;;;;;9.68;5.28;;;;;;;3.69;100.00;92724.13;4993665;28;20050;-78
2021/12/26 01:43:35;;;;;;;11.60;5.80;;;;;;;3.65;100.00;92717.84;4993553;28;20042;-78
2021/12/26 01:46:03;;;;;;;13.88;5.85;;;;;;;3.68;100.00;92714.94;4993176;28;20042;-78
2021/12/26 01:48:29;;;;;;;9.75;5.45;;;;;;;3.68;100.00;92715.75;4993334;28;20046;-79
2021/12/26 01:50:57;;;;;;;10.95;5.20;;;;;;;3.64;100.00;92719.59;4993165;28;20421;-78
2021/12/26 01:53:35;;;;;;;8.45;4.47;;;;;;;3.70;100.00;92713.03;4993077;28;20458;-78
2021/12/26 01:56:05;;;;;;;10.27;5.00;;;;;;;3.70;100.00;92713.78;4992917;28;20082;-78
2021/12/26 01:58:32;;;;;;;10.23;4.93;;;;;;;3.72;100.00;92711.88;4992855;28;20053;-78
2021/12/26 02:01:02;;;;;;;8.57;4.43;;;;;;;3.68;100.00;92714.94;4992785;28;20050;-78
2021/12/26 02:03:29;;;;;;;9.43;4.57;;;;;;;3.74;100.00;92719.31;4992607;28;20046;-77
2021/12/26 02:05:56;;;;;;;8.63;4.70;;;;;;;3.59;100.00;92697.28;4993023;28;20038;-77
2021/12/26 02:08:23;;;;;;;9.05;5.05;;;;;;;3.74;100.00;92704.84;4992653;28;20573;-78
2021/12/26 02:10:50;;;;;;;7.07;4.22;;;;;;;3.83;100.00;92707.28;4992618;28;20038;-77
2021/12/26 02:13:18;;;;;;;9.20;4.80;;;;;;;3.82;100.00;92705.69;4992943;28;20050;-78
2021/12/26 02:15:45;;;;;;;9.60;4.75;;;;;;;3.84;100.00;92706.31;4992641;28;20053;-79
2021/12/26 02:18:13;;;;;;;9.63;4.47;;;;;;;3.86;100.00;92710.25;4992739;28;20050;-79
2021/12/26 02:20:58;;;;;;;10.57;5.00;;;;;;;3.88;100.00;92699.91;4992636;28;20156;-78
2021/12/26 02:23:30;;;;;;;11.10;6.77;;;;;;;3.87;100.00;92703.41;4992593;28;20038;-79
2021/12/26 02:28:45;;;;;;;17.02;8.05;;;;;;;3.88;100.00;92697.34;4992373;28;20049;-79
2021/12/26 02:31:13;;;;;;;11.50;6.35;;;;;;;3.81;100.00;92694.78;4992508;28;20047;-79
2021/12/26 02:33:40;;;;;;;11.13;5.47;;;;;;;3.90;100.00;92704.81;4992207;28;20061;-78
2021/12/26 02:36:09;;;;;;;10.27;5.20;;;;;;;3.73;100.00;92680.44;4992308;28;20398;-78
2021/12/26 02:38:36;;;;;;;10.90;5.95;;;;;;;3.93;100.00;92705.22;4991946;28;20042;-79
2021/12/26 02:41:05;;;;;;;7.75;5.03;;;;;;;3.52;100.00;92642.31;4992206;28;20426;-79
2021/12/26 02:43:33;;;;;;;7.75;5.00;;;;;;;3.95;100.00;92700.75;4992253;28;20038;-79
2021/12/26 02:46:04;;;;;;;8.18;5.05;;;;;;;3.96;100.00;92699.00;4992256;28;20058;-79
2021/12/26 02:48:32;;;;;;;9.63;5.70;;;;;;;3.97;100.00;92693.75;4992286;28;20053;-79
2021/12/26 02:50:59;;;;;;;8.73;5.40;;;;;;;3.98;100.00;92695.31;4991995;28;20061;-78
2021/12/26 02:53:28;;;;;;;8.45;5.13;;;;;;;4.04;100.00;92693.81;4991734;28;20569;-79
2021/12/26 02:55:56;;;;;;;10.93;6.07;;;;;;;4.06;100.00;92691.06;4992073;28;20462;-79
2021/12/26 02:58:24;;;;;;;10.10;5.38;;;;;;;4.04;100.00;92687.94;4991602;28;20043;-79
2021/12/26 03:00:53;;;;;;;9.43;5.00;;;;;;;4.03;100.00;92686.34;4991902;28;20058;-78
2021/12/26 03:03:20;;;;;;;5.88;3.67;;;;;;;4.06;100.00;92686.78;4992144;28;20511;-79
2021/12/26 03:05:55;;;;;;;5.72;2.70;;;;;;;4.16;100.00;92690.78;4992544;28;20073;-78
2021/12/26 03:08:22;;;;;;;5.55;3.22;;;;;;;4.24;100.00;92696.50;4991525;28;20513;-79
2021/12/26 03:10:52;;;;;;;8.27;3.17;;;;;;;4.08;100.00;92661.94;4991553;28;20050;-79
2021/12/26 03:13:19;;;;;;;8.57;3.50;;;;;;;4.37;100.00;92685.66;4991505;28;20549;-78
2021/12/26 03:15:46;;;;;;;5.13;2.60;;;;;;;4.46;100.00;92685.50;4991529;28;20050;-79
2021/12/26 03:18:13;;;;;;;4.57;2.40;;;;;;;4.39;100.00;92665.13;4991644;28;20065;-78
2021/12/26 03:20:43;;;;;;;6.70;3.20;;;;;;;4.59;100.00;92679.75;4991252;28;20046;-78
2021/12/26 03:23:12;;;;;;;6.53;2.72;;;;;;;4.65;100.00;92672.16;4991589;28;20046;-79
2021/12/26 03:25:41;;;;;;;6.03;3.65;;;;;;;4.75;100.00;92683.75;4991291;28;20501;-79
2021/12/26 03:28:10;;;;;;;7.53;4.43;;;;;;;4.62;100.00;92641.19;4991625;28;20046;-79
2021/12/26 03:30:37;;;;;;;7.35;3.88;;;;;;;4.90;100.00;92670.91;4992254;28;20409;-78
2021/12/26 03:33:06;;;;;;;9.40;4.63;;;;;;;5.01;100.00;92679.78;4988881;28;20039;-79
2021/12/26 03:35:35;;;;;;;11.70;5.40;;;;;;;4.99;100.00;92684.28;4989300;28;20541;-79
2021/12/26 03:38:05;;;;;;;9.10;4.28;;;;;;;4.99;100.00;92679.97;4990201;28;20517;-80
2021/12/26 03:40:32;;;;;;;7.03;3.92;;;;;;;5.01;100.00;92689.97;4991173;28;20042;-79
2021/12/26 03:42:59;;;;;;;7.35;4.53;;;;;;;4.95;100.00;92686.41;4991041;28;20057;-79
2021/12/26 03:45:27;;;;;;;6.68;3.85;;;;;;;4.97;100.00;92694.66;4990966;28;20089;-80
2021/12/26 03:47:54;;;;;;;6.93;4.28;;;;;;;4.99;100.00;92702.09;4990992;28;20038;-80
2021/12/26 03:50:24;;;;;;;7.93;5.05;;;;;;;4.99;100.00;92699.56;4989918;28;20565;-79
2021/12/26 03:52:51;;;;;;;8.65;3.95;;;;;;;4.97;100.00;92696.41;4990985;28;20450;-79
2021/12/26 03:55:18;;;;;;;8.68;4.78;;;;;;;4.89;100.00;92687.16;4990897;28;20046;-79
2021/12/26 03:57:45;;;;;;;9.35;4.25;;;;;;;4.78;100.00;92673.97;4990687;28;20057;-80
2021/12/26 04:00:14;;;;;;;5.82;3.22;;;;;;;4.94;100.00;92695.00;4990527;28;20482;-80
2021/12/26 04:02:43;;;;;;;5.85;3.60;;;;;;;5.09;100.00;92705.06;4990307;28;20046;-79
2021/12/26 04:05:10;;;;;;;6.22;3.45;;;;;;;5.08;100.00;92711.13;4990650;28;20121;-78
2021/12/26 04:07:37;;;;;;;10.73;5.32;;;;;;;4.41;100.00;92602.16;4990404;28;20050;-78
2021/12/26 04:10:05;;;;;;;9.68;4.70;;;;;;;5.15;100.00;92706.88;4990583;28;20449;-78
2021/12/26 04:12:36;;;;;;;10.75;5.07;;;;;;;5.14;100.00;92714.72;4990627;28;20042;-78
2021/12/26 04:15:04;;;;;;;7.82;4.35;;;;;;;5.14;100.00;92710.38;4990714;28;20498;-78
2021/12/26 04:17:31;;;;;;;9.85;5.45;;;;;;;5.05;100.00;92694.47;4990848;28;20050;-78
2021/12/26 04:19:59;;;;;;;5.75;3.55;;;;;;;5.19;100.00;92708.06;4990168;28;20054;-78
2021/12/26 04:22:26;;;;;;;5.53;3.50;;;;;;;5.17;100.00;92704.94;4989798;28;20050;-79
2021/12/26 04:24:53;;;;;;;9.57;4.93;;;;;;;5.22;100.00;92714.53;4990452;28;20046;-79
2021/12/26 04:27:21;;;;;;;21.35;10.65;;;;;;;5.22;100.00;92712.78;4990536;28;20054;-79
2021/12/26 04:29:48;;;;;;;9.60;5.78;;;;;;;5.25;100.00;92705.75;4990115;28;20078;-79
2021/12/26 04:32:15;;;;;;;11.65;6.15;;;;;;;5.26;100.00;92709.84;4990028;28;20050;-79
2021/12/26 04:34:42;;;;;;;17.63;8.80;;;;;;;5.17;100.00;92701.59;4990178;28;20054;-79
2021/12/26 04:37:10;;;;;;;17.75;8.65;;;;;;;5.29;100.00;92714.56;4989936;28;20042;-79
2021/12/26 04:39:37;;;;;;;22.25;9.80;;;;;;;5.31;100.00;92726.16;4989953;28;20497;-79
2021/12/26 04:42:05;;;;;;;28.20;11.93;;;;;;;5.30;100.00;92719.50;4989941;28;20053;-79
2021/12/26 04:44:32;;;;;;;22.42;11.57;;;;;;;5.30;100.00;92716.16;4989772;28;20046;-79
2021/12/26 04:46:59;;;;;;;23.98;11.32;;;;;;;5.30;100.00;92714.41;4989953;28;20066;-78
2021/12/26 04:49:25;;;;;;;12.98;6.68;;;;;;;5.38;100.00;92723.63;4989991;28;20058;-78
2021/12/26 04:51:52;;;;;;;10.18;4.47;;;;;;;5.26;100.00;92710.66;4990094;28;20046;-78
2021/12/26 04:54:21;;;;;;;10.75;5.30;;;;;;;5.40;100.00;92729.31;4989740;28;20042;-77
2021/12/26 04:56:47;;;;;;;12.75;6.93;;;;;;;5.47;100.00;92731.91;4989915;28;20045;-77
2021/12/26 04:59:14;;;;;;;6.35;3.67;;;;;;;5.47;100.00;92735.22;4990032;28;20054;-78
2021/12/26 05:01:41;;;;;;;7.50;3.78;;;;;;;5.47;100.00;92731.91;4988309;28;20046;-78
2021/12/26 05:04:10;;;;;;;6.80;3.50;;;;;;;5.49;100.00;92742.69;4999235;28;20053;-79
2021/12/26 05:06:37;;;;;;;7.75;3.70;;;;;;;5.54;100.00;92748.00;4993496;28;20058;-78
2021/12/26 05:09:05;;;;;;;8.77;4.25;;;;;;;5.52;100.00;92741.50;4994506;28;20070;-78
2021/12/26 05:11:36;;;;;;;10.90;5.00;;;;;;;5.54;100.00;92753.09;4993693;28;20054;-77
2021/12/26 05:14:04;;;;;;;16.85;7.30;;;;;;;5.46;100.00;92732.88;4993838;28;20381;-78
2021/12/26 05:16:31;;;;;;;21.90;9.65;;;;;;;5.59;100.00;92750.75;4993759;28;20057;-78
2021/12/26 05:18:58;;;;;;;19.48;8.98;;;;;;;5.51;100.00;92745.81;4993763;28;20505;-78
2021/12/26 05:21:25;;;;;;;19.23;8.63;;;;;;;5.58;100.00;92753.50;5011413;28;20046;-78
2021/12/26 05:23:52;;;;;;;12.80;7.10;;;;;;;5.64;100.00;92759.59;5012986;28;20528;-78
2021/12/26 05:26:18;;;;;;;16.10;9.05;;;;;;;5.62;100.00;92758.00;5012834;28;20096;-78
2021/12/26 05:28:47;;;;;;;13.43;7.13;;;;;;;5.49;100.00;92750.31;5013005;28;20440;-78
2021/12/26 05:31:14;;;;;;;12.32;7.25;;;;;;;5.59;100.00;92758.41;5013166;28;20046;-79
2021/12/26 05:33:40;;;;;;;13.18;7.13;;;;;;;5.62;100.00;92768.19;5013160;28;20133;-77
2021/12/26 05:36:07;;;;;;;14.77;7.68;;;;;;;5.62;100.00;92750.38;5003514;28;20053;-78
2021/12/26 05:38:34;;;;;;;10.60;6.28;;;;;;;5.65;100.00;92745.88;4993595;28;20066;-77
2021/12/26 05:41:01;;;;;;;8.57;4.25;;;;;;;5.55;100.00;92736.06;4993176;28;20042;-77
2021/12/26 05:43:28;;;;;;;9.27;3.17;;;;;;;5.62;100.00;92741.94;4993492;28;20050;-77
2021/12/26 05:45:56;;;;;;;6.13;2.92;;;;;;;5.61;100.00;92740.38;4993002;28;20046;-77
2021/12/26 05:48:23;;;;;;;8.02;2.88;;;;;;;5.60;100.00;92733.72;4993293;28;20364;-77
2021/12/26 05:50:52;;;;;;;6.88;3.08;;;;;;;5.45;100.00;92713.47;4993213;28;20050;-78
2021/12/26 05:53:19;;;;;;;5.68;2.53;;;;;;;5.37;100.00;92696.56;4992973;28;20038;-79
2021/12/26 05:55:48;;;;;;;6.57;3.00;;;;;;;5.38;100.00;92689.72;4993243;28;20490;-79
2021/12/26 05:58:14;;;;;;;6.88;3.80;;;;;;;5.37;100.00;92701.66;5011468;28;20050;-78
2021/12/26 06:00:41;;;;;;;9.48;3.42;;;;;;;5.38;100.00;92685.44;5012454;28;20057;-79
2021/12/26 06:03:09;;;;;;;7.25;3.72;;;;;;;5.40;100.00;92685.22;5012453;28;20048;-79
2021/12/26 06:05:36;;;;;;;9.13;4.15;;;;;;;5.33;100.00;92668.16;5012524;28;20042;-79
2021/12/26 06:08:03;;;;;;;9.20;4.03;;;;;;;5.45;100.00;92680.34;5007124;28;20045;-78
2021/12/26 06:10:30;;;;;;;16.70;6.63;;;;;;;5.46;100.00;92689.59;4999556;28;20669;-78
2021/12/26 06:12:57;;;;;;;12.32;5.80;;;;;;;5.48;100.00;92683.28;4991654;28;20042;-78
2021/12/26 06:15:24;;;;;;;14.15;7.50;;;;;;;5.43;100.00;92684.84;4992721;28;20047;-78
2021/12/26 06:17:51;;;;;;;12.52;6.13;;;;;;;5.39;100.00;92664.06;4992453;28;20089;-78
2021/12/26 06:20:19;;;;;;;19.42;8.60;;;;;;;5.44;100.00;92681.31;4992684;28;20130;-77
2021/12/26 06:22:47;;;;;;;20.90;10.77;;;;;;;5.41;100.00;92681.72;4992018;28;20054;-78
2021/12/26 06:25:15;;;;;;;19.30;9.05;;;;;;;5.39;100.00;92676.81;4992580;28;20046;-78
2021/12/26 06:27:42;;;;;;;26.80;12.13;;;;;;;5.35;100.00;92676.41;4992241;28;20051;-78
2021/12/26 06:30:10;;;;;;;27.50;13.80;;;;;;;5.35;100.00;92670.53;4992534;28;20043;-78
2021/12/26 06:32:38;;;;;;;41.63;18.83;;;;;;;5.39;100.00;92678.56;4992447;28;20046;-79
2021/12/26 06:35:06;;;;;;;34.75;16.70;;;;;;;5.11;100.00;92636.16;4992165;28;20053;-79
2021/12/26 06:37:34;;;;;;;26.20;14.02;;;;;;;5.37;100.00;92688.94;4991887;28;20046;-79
2021/12/26 06:40:01;;;;;;;21.27;10.13;;;;;;;5.34;100.00;92681.69;4992292;28;20046;-78
2021/12/26 06:42:30;;;;;;;21.90;9.10;;;;;;;5.35;100.00;92690.91;4992168;28;20057;-78
2021/12/26 06:44:56;;;;;;;15.00;8.35;;;;;;;5.30;100.00;92688.13;4991855;28;20050;-78
2021/12/26 06:47:24;;;;;;;21.38;7.82;;;;;;;5.40;100.00;92700.50;4992293;28;20073;-78
2021/12/26 06:49:51;;;;;;;26.08;11.70;;;;;;;5.41;100.00;92712.28;4991726;28;20038;-78
2021/12/26 06:52:19;;;;;;;14.10;7.30;;;;;;;5.39;100.00;92709.91;4992086;28;20050;-80
2021/12/26 06:54:47;;;;;;;16.15;9.55;;;;;;;5.35;100.00;92704.44;4991785;28;20391;-81
2021/12/26 06:57:15;;;;;;;14.02;9.05;;;;;;;5.40;100.00;92711.50;4991914;28;20442;-79
2021/12/26 06:59:41;;;;;;;12.90;6.60;;;;;;;5.29;100.00;92695.00;4992506;28;20058;-80
2021/12/26 07:02:08;;;;;;;9.73;4.47;;;;;;;5.42;100.00;92731.69;4992120;28;20058;-80
2021/12/26 07:04:35;;;;;;;9.38;5.63;;;;;;;5.44;100.00;92727.19;4991832;28;20125;-79
2021/12/26 07:07:02;;;;;;;6.75;3.80;;;;;;;5.46;100.00;92740.53;4991725;28;20113;-80
2021/12/26 07:09:29;;;;;;;9.00;5.70;;;;;;;5.47;100.00;92734.44;4991566;28;20050;-81
2021/12/26 07:11:57;;;;;;;7.85;4.60;;;;;;;5.31;100.00;92723.59;4991752;28;20450;-79
2021/12/26 07:14:24;;;;;;;10.35;6.95;;;;;;;5.51;100.00;92743.25;4991466;28;20050;-83
2021/12/26 07:16:51;;;;;;;27.63;13.25;;;;;;;5.52;100.00;92742.31;4991296;28;20508;-82
2021/12/26 07:19:18;;;;;;;25.25;11.70;;;;;;;5.50;100.00;92740.94;4991481;28;20042;-81
2021/12/26 07:21:44;;;;;;;14.77;6.55;;;;;;;5.54;100.00;92753.09;4991145;28;20043;-82
2021/12/26 07:24:11;;;;;;;18.60;9.27;;;;;;;5.56;100.00;92758.00;4990886;28;20050;-82
2021/12/26 07:26:38;;;;;;;40.58;22.42;;;;;;;5.48;100.00;92739.34;4990761;28;20490;-82
2021/12/26 07:29:07;;;;;;;20.05;11.27;;;;;;;5.53;100.00;92746.44;4991329;28;20050;-81
2021/12/26 07:31:34;;;;;;;11.68;7.38;;;;;;;5.67;100.00;92765.09;4991348;28;20046;-83
2021/12/26 07:34:01;;;;;;;11.40;7.78;;;;;;;5.73;100.00;92761.00;4990994;28;20052;-82
2021/12/26 07:36:28;;;;;;;11.05;5.93;;;;;;;5.64;100.00;92742.53;4991009;28;20371;-82
2021/12/26 07:38:55;;;;;;;11.10;6.95;;;;;;;5.62;100.00;92742.72;4991137;28;20413;-82
2021/12/26 07:41:23;;;;;;;7.15;5.38;;;;;;;5.63;100.00;92740.97;4991808;28;20053;-82
2021/12/26 07:43:50;;;;;;;7.13;4.45;;;;;;;5.83;100.00;92766.53;4991688;28;20049;-83
2021/12/26 07:46:19;;;;;;;7.93;4.18;;;;;;;5.79;100.00;92759.47;4991688;28;20058;-82
2021/12/26 07:48:46;;;;;;;7.75;4.80;;;;;;;5.83;100.00;92758.88;4990921;28;21183;-81
2021/12/26 07:51:13;;;;;;;9.30;4.95;;;;;;;5.82;100.00;92753.97;4990689;28;20054;-83
2021/12/26 07:53:40;;;;;;;7.75;5.40;;;;;;;5.77;100.00;92741.81;4990968;28;20132;-84
2021/12/26 07:56:06;;;;;;;6.85;4.05;;;;;;;5.68;100.00;92732.75;4993734;28;20046;-82
2021/12/26 07:58:34;;;;;;;7.63;4.22;;;;;;;5.86;100.00;92752.59;5010536;28;20053;-82
2021/12/26 08:01:01;;;;;;;5.25;3.30;;;;;;;5.74;100.00;92729.47;5010347;28;20049;-83
2021/12/26 08:03:29;;;;;;;4.45;2.67;;;;;;;5.62;100.00;92712.16;5010002;28;20057;-82
2021/12/26 08:05:56;;;;;;;6.53;3.35;;;;;;;5.83;100.00;92732.63;5010299;28;20041;-82
2021/12/26 08:08:23;;;;;;;6.00;2.75;;;;;;;5.86;100.00;92716.91;5010545;28;20482;-82
2021/12/26 08:10:50;;;;;;;5.95;2.80;;;;;;;5.70;100.00;92682.38;4996477;28;20042;-82
2021/12/26 08:13:17;;;;;;;4.70;2.55;;;;;;;5.93;100.00;92699.09;4990335;28;20502;-82
2021/12/26 08:15:44;;;;;;;5.88;2.58;;;;;;;5.98;100.00;92704.41;4990372;28;20047;-82
2021/12/26 08:18:10;;;;;;;8.52;2.28;;;;;;;5.98;100.00;92700.06;4990435;28;20042;-83
2021/12/26 08:20:39;;;;;;;7.57;2.95;;;;;;;6.08;100.00;92704.84;4990362;28;20050;-83
2021/12/26 08:23:06;;;;;;;6.50;3.15;;;;;;;5.92;100.00;92672.81;4990090;28;20047;-82
2021/12/26 08:25:33;;;;;;;8.18;3.00;;;;;;;6.21;100.00;92705.84;4990079;28;20509;-81
2021/12/26 08:28:00;;;;;;;7.18;3.00;;;;;;;6.36;100.00;92703.09;4990365;28;20053;-82
2021/12/26 08:30:27;;;;;;;6.32;2.70;;;;;;;6.30;100.00;92697.03;4990151;28;20049;-82
2021/12/26 08:32:58;;;;;;;7.10;3.30;;;;;;;6.53;100.00;92722.13;4990244;28;20082;-82
2021/12/26 08:35:25;;;;;;;5.75;2.80;;;;;;;6.67;100.00;92733.13;4989642;28;20042;-81
2021/12/26 08:37:54;;;;;;;13.35;5.90;;;;;;;6.52;100.00;92705.25;4990153;28;20059;-82
2021/12/26 08:40:21;;;;;;;10.63;5.50;;;;;;;6.75;100.00;92727.03;4989686;28;20486;-82
2021/12/26 08:42:48;;;;;;;7.22;3.35;;;;;;;6.79;100.00;92735.06;4989366;28;20054;-82
2021/12/26 08:45:16;;;;;;;8.43;3.70;;;;;;;6.54;100.00;92692.31;4989295;28;20060;-84
2021/12/26 08:47:43;;;;;;;5.78;2.30;;;;;;;6.64;100.00;92699.56;4989825;28;20371;-82
2021/12/26 08:50:12;;;;;;;8.70;2.58;;;;;;;6.92;100.00;92735.06;4989777;28;20054;-83
2021/12/26 08:52:40;;;;;;;6.75;2.75;;;;;;;6.95;100.00;92734.66;4989798;28;20052;-84
2021/12/26 08:55:09;;;;;;;8.02;2.83;;;;;;;6.91;100.00;92718.16;4989791;28;20046;-85
2021/12/26 08:57:36;;;;;;;7.40;2.83;;;;;;;7.08;100.00;92731.31;5005602;28;20386;-83
2021/12/26 09:00:07;;;;;;;13.38;6.43;;;;;;;6.90;100.00;92695.41;5010198;28;20445;-84
2021/12/26 09:02:33;;;;;;;24.15;10.85;;;;;;;7.18;100.00;92718.13;5009553;28;20042;-84
2021/12/26 09:05:00;;;;;;;12.43;6.75;;;;;;;7.15;99.79;92703.22;5009950;28;20049;-84
2021/12/26 09:07:28;;;;;;;6.55;3.40;;;;;;;7.33;99.52;92715.31;5009724;28;20050;-84
2021/12/26 09:09:55;;;;;;;6.03;3.00;;;;;;;7.39;98.93;92711.19;5003863;28;20397;-84
2021/12/26 09:12:23;;;;;;;6.82;3.35;;;;;;;7.37;98.90;92717.47;4990213;28;20086;-83
2021/12/26 09:14:51;;;;;;;3.75;2.03;;;;;;;7.21;98.02;92688.84;4989980;28;20069;-84
2021/12/26 09:17:17;;;;;;;6.07;4.25;;;;;;;7.19;98.14;92685.69;4989743;28;20145;-84
2021/12/26 09:19:44;;;;;;;8.80;3.35;;;;;;;7.01;98.49;92656.50;4989798;28;20049;-84
2021/12/26 09:22:15;;;;;;;4.65;2.80;;;;;;;7.31;97.99;92696.84;4989698;28;20050;-84
2021/12/26 09:24:43;;;;;;;5.82;2.30;;;;;;;7.06;97.61;92660.97;4989955;28;20046;-83
2021/12/26 09:27:10;;;;;;;5.57;2.40;;;;;;;7.42;97.68;92707.44;4989623;28;20505;-83
2021/12/26 09:29:38;;;;;;;18.95;9.38;;;;;;;7.58;97.37;92721.53;4989475;28;20059;-84
2021/12/26 09:32:07;;;;;;;5.32;3.53;;;;;;;7.49;97.51;92698.75;4989365;28;20054;-87
2021/12/26 09:34:35;;;;;;;17.27;9.38;;;;;;;7.70;97.61;92711.44;4989690;28;20089;-85
2021/12/26 09:37:03;;;;;;;9.38;4.90;;;;;;;7.68;96.98;92708.31;4989727;28;20050;-85
2021/12/26 09:39:30;;;;;;;7.38;5.07;;;;;;;7.85;96.83;92709.41;4989623;28;20042;-85
2021/12/26 09:41:57;;;;;;;7.32;3.58;;;;;;;7.83;96.43;92697.81;4989801;28;20180;-85
2021/12/26 09:44:25;;;;;;;5.53;2.90;;;;;;;7.37;95.16;92628.06;4989180;28;20050;-85
2021/12/26 09:46:53;;;;;;;6.90;3.35;;;;;;;7.91;94.80;92707.03;4990199;28;20054;-84
2021/12/26 09:49:21;;;;;;;5.53;2.65;;;;;;;7.88;94.91;92705.66;4992618;28;20047;-84
2021/12/26 09:51:49;;;;;;;5.53;2.40;;;;;;;7.95;94.79;92710.72;4993693;28;20097;-85
2021/12/26 09:54:17;;;;;;;6.38;2.30;;;;;;;7.51;94.72;92644.09;4993803;28;20129;-86
2021/12/26 09:56:44;;;;;;;6.25;3.33;;;;;;;7.96;94.43;92709.75;5001976;28;20491;-84
2021/12/26 09:59:16;;;;;;;4.88;2.05;;;;;;;7.96;94.67;92717.44;5012922;28;20128;-84
2021/12/26 10:01:45;;;;;;;6.30;2.45;;;;;;;7.38;94.78;92627.84;5012389;28;20054;-84
2021/12/26 10:04:20;;;;;;;6.30;2.88;;;;;;;8.13;95.37;92708.28;5012298;28;20501;-84
2021/12/26 10:06:48;;;;;;;3.70;2.15;;;;;;;7.65;95.19;92632.03;5012340;28;20046;-85
2021/12/26 10:09:15;;;;;;;5.10;3.08;;;;;;;7.71;94.16;92647.34;5011582;28;20378;-85
2021/12/26 10:11:44;;;;;;;11.70;6.13;;;;;;;8.29;94.47;92719.78;4992662;28;20046;-84
2021/12/26 10:14:15;;;;;;;11.80;5.97;;;;;;;8.18;94.06;92694.84;4993515;28;20038;-85
2021/12/26 10:16:46;;;;;;;10.07;5.88;;;;;;;8.04;94.54;92660.13;4993304;28;20456;-85
2021/12/26 10:19:14;;;;;;;13.48;6.28;;;;;;;8.40;93.95;92715.78;4993388;28;20050;-85
2021/12/26 10:21:44;;;;;;;19.92;9.25;;;;;;;8.12;94.37;92653.00;4993282;28;20393;-85
2021/12/26 10:24:18;;;;;;;23.52;12.50;;;;;;;8.61;93.83;92720.78;4992226;28;20053;-84
2021/12/26 10:26:47;;;;;;;17.05;8.23;;;;;;;8.69;93.71;92728.97;4992120;28;20053;-84
2021/12/26 10:29:24;;;;;;;18.15;8.32;;;;;;;8.73;93.03;92726.78;4992543;28;20050;-85
2021/12/26 10:32:05;;;;;;;17.50;7.75;;;;;;;8.75;92.81;92703.53;4992196;28;20492;-84
2021/12/26 10:34:36;;;;;;;13.02;8.30;;;;;;;8.43;92.63;92663.38;4992686;28;20064;-85
2021/12/26 10:37:07;;;;;;;14.93;6.55;;;;;;;8.63;92.91;92668.38;4992082;28;20042;-84
2021/12/26 10:39:38;;;;;;;13.18;8.38;;;;;;;8.80;93.15;92681.41;4989536;28;20061;-84
2021/12/26 10:42:07;;;;;;;11.95;5.05;;;;;;;8.45;93.08;92627.31;4990504;28;20062;-85
2021/12/26 10:44:39;;;;;;;27.75;13.25;;;;;;;8.61;92.95;92657.53;4991952;28;20053;-85
2021/12/26 10:47:09;;;;;;;40.45;15.40;;;;;;;8.75;92.56;92676.13;4991974;28;20046;-85
2021/12/26 10:49:45;;;;;;;21.95;11.00;;;;;;;8.74;92.95;92687.34;4991301;28;20050;-85
2021/12/26 10:52:21;;;;;;;10.13;4.20;;;;;;;8.77;92.47;92696.41;4991038;28;20042;-84
2021/12/26 10:54:54;;;;;;;12.02;5.78;;;;;;;8.67;93.06;92677.16;4990554;28;20073;-85
2021/12/26 10:57:27;;;;;;;22.85;11.07;;;;;;;8.89;92.66;92697.25;5004886;28;20125;-85
2021/12/26 11:00:05;;;;;;;61.55;25.35;;;;;;;8.38;92.81;92630.72;5011284;28;20053;-87
2021/12/26 11:02:34;;;;;;;87.55;34.63;;;;;;;8.43;92.37;92622.44;5010968;28;20046;-86
2021/12/26 11:05:04;;;;;;;87.47;34.80;;;;;;;9.08;91.77;92715.25;4995866;28;20074;-86
2021/12/26 11:07:40;;;;;;;43.92;17.30;;;;;;;9.11;91.99;92696.88;4991311;28;20057;-86
2021/12/26 11:10:11;;;;;;;48.25;20.60;;;;;;;9.20;91.65;92705.03;4991187;28;20046;-83
2021/12/26 11:12:43;;;;;;;28.35;12.88;;;;;;;9.23;91.32;92697.72;4991687;28;20134;-83
2021/12/26 11:15:12;;;;;;;88.53;34.47;;;;;;;9.16;90.68;92675.75;4991650;28;20038;-83
2021/12/26 11:17:44;;;;;;;32.55;14.65;;;;;;;9.46;90.64;92703.19;4994340;28;20088;-83
2021/12/26 11:20:19;;;;;;;198.57;75.65;;;;;;;9.42;91.35;92691.81;5011175;28;20069;-83
2021/12/26 11:22:48;;;;;;;42.53;17.98;;;;;;;9.65;89.67;92703.16;5010937;28;20160;-84
2021/12/26 11:25:14;;;;;;;26.63;12.52;;;;;;;9.73;89.99;92703.66;5010487;28;20111;-83
2021/12/26 11:27:41;;;;;;;97.68;41.83;;;;;;;9.70;89.50;92691.28;5010797;28;20049;-83
2021/12/26 11:30:10;;;;;;;26.67;12.00;;;;;;;9.87;88.98;92711.19;5010755;28;20042;-84
2021/12/26 11:32:37;;;;;;;51.05;23.38;;;;;;;9.89;89.02;92704.06;5010528;28;20119;-82
2021/12/26 11:35:07;;;;;;;61.28;30.92;;;;;;;9.99;89.05;92708.66;5010635;28;20045;-84